Latest Coastal Weather Observations for Maningrida Airport

IDD60701

Issued at 3:01 am CST Thursday 17 August 2017 (issued every 10 minutes, with the page automatically refreshed every 10 minutes)

About coastal observations | Map of coastal stations | Coastal observations for NT | Marine services | Other Formats
Station Details ID: 014405 Name: MANINGRIDA AIRPORT Lat: -12.06 Lon: 134.23 Height: 28.1 m
Data from the previous 72 hours. | See also: Recent months at Maningrida Airport
Date/Time
CST
Temp
°C
Wind Pressure Rain since
9am
mm
Weather Cloud Vis
km
Sea
Height
m
Swell
Dir  Spd
kts
Gust
kts
hPa Trend Height
m
Period
s
Dir
17/03:00am 22.5 SSE 3 4 1010.0 - 0.0 - - 16 - - - -
17/02:30am 22.9 SSE 3 4 1010.1 - 0.0 - - 10 - - - -
17/02:00am 23.6 ESE 3 4 1010.3 - 0.0 - Partly cloudy 10 - - - -
17/01:30am 23.9 CALM 0 0 1010.5 - 0.0 - Cloudy 10 - - - -
17/01:00am 23.8 CALM 0 0 1010.8 - 0.0 - Partly cloudy 10 - - - -
17/12:30am 23.7 CALM 0 0 1011.0 - 0.0 - Partly cloudy 10 - - - -
17/12:00am 24.6 ENE 2 4 1011.1 - 0.0 - - 10 - - - -
 
Date/Time
CST
Temp
°C
Wind Pressure Rain since
9am
mm
Weather Cloud Vis
km
Sea
Height
m
Swell
Dir  Spd
kts
Gust
kts
hPa Trend Height
m
Period
s
Dir
16/11:30pm 24.8 ENE 3 4 1011.2 - 0.0 - - 10 - - - -
16/11:00pm 25.0 ENE 3 6 1011.3 - 0.0 - - 10 - - - -
16/10:30pm 25.2 NE 4 7 1011.5 - 0.0 - - 10 - - - -
16/10:00pm 25.2 ENE 4 7 1011.3 - 0.0 - - 10 - - - -
16/09:30pm 25.2 ENE 5 7 1011.2 - 0.0 - - 10 - - - -
16/09:00pm 25.4 NE 5 6 1010.9 - 0.0 - - 10 - - - -
16/08:30pm 25.3 NE 4 6 1010.6 - 0.0 - - 10 - - - -
16/08:00pm 25.5 NNE 5 6 1010.4 - 0.0 - - 10 - - - -
16/07:30pm 25.8 NNE 4 5 1010.0 - 0.0 - - 10 - - - -
16/07:00pm 26.1 NNE 4 6 1009.7 - 0.0 - - 10 - - - -
16/06:30pm 26.4 N 7 9 1009.4 - 0.0 - - 10 - - - -
16/06:00pm 27.1 N 8 11 1009.3 - 0.0 - - 10 - - - -
16/05:30pm 27.8 N 10 12 1009.0 - 0.0 - - 10 - - - -
16/05:00pm 28.3 N 9 12 1008.7 - 0.0 - - 10 - - - -
16/04:30pm 28.8 NNE 11 15 1008.5 - 0.0 - - 10 - - - -
16/04:00pm 29.6 NNE 10 14 1008.6 - 0.0 - - 10 - - - -
16/03:30pm 29.8 NNE 10 14 1008.7 - 0.0 - - 10 - - - -
16/03:00pm 30.1 NNE 11 15 1008.7 - 0.0 - - 10 - - - -
16/02:30pm 30.7 NE 9 13 1008.9 - 0.0 - - 10 - - - -
16/02:00pm 30.0 NE 12 16 1009.3 - 0.0 - - 10 - - - -
16/01:30pm 30.5 NE 12 19 1009.7 - 0.0 - - 10 - - - -
16/01:00pm 31.3 ENE 13 18 1010.1 - 0.0 - - 10 - - - -
16/12:30pm 31.2 ENE 11 20 1010.5 - 0.0 - - 10 - - - -
16/12:00pm 30.6 ENE 11 19 1011.1 - 0.0 - - 10 - - - -
16/11:30am 30.3 E 9 15 1011.6 - 0.0 - - 10 - - - -
16/11:00am 30.1 E 9 16 1011.8 - 0.0 - - 10 - - - -
16/10:30am 29.8 ESE 6 10 1012.2 - 0.0 - - 10 - - - -
16/10:00am 29.0 ESE 8 14 1012.5 - 0.0 - - 10 - - - -
16/09:30am 27.8 ESE 7 11 1012.6 - 0.0 - - 10 - - - -
16/09:00am 26.2 SE 7 10 1012.5 - 0.0 - - 10 - - - -
16/08:30am 24.5 S 6 8 1012.1 - 0.0 - - 10 - - - -
16/08:00am 22.6 S 5 8 1012.0 - 0.0 - - 10 - - - -
16/07:30am 21.6 SSW 5 8 1011.7 - 0.0 - - 10 - - - -
16/07:00am 21.3 S 5 6 1011.6 - 0.0 - - 10 - - - -
16/06:30am 21.4 S 5 6 1011.2 - 0.0 - - 10 - - - -
16/06:14am 21.4 S 4 6 1011.0 - 0.0 - Partly cloudy 10 - - - -
16/06:00am 21.4 SSW 5 6 1010.8 - 0.0 - Mostly clear 4 - - - -
16/05:48am 21.4 SSW 5 6 1010.7 - 0.0 - Partly cloudy 5 - - - -
16/05:30am 21.5 SSW 4 5 1010.5 - 0.0 - - 10 - - - -
16/05:00am 21.8 S 4 6 1010.4 - 0.0 - - 10 - - - -
16/04:30am 21.9 SSW 4 5 1010.4 - 0.0 - - 10 - - - -
16/04:00am 21.9 SSW 3 5 1010.6 - 0.0 - - 10 - - - -
16/03:30am 22.1 SW 4 6 1010.5 - 0.0 - - 10 - - - -
16/03:00am 22.3 SSE 4 5 1010.6 - 0.0 - - 10 - - - -
16/02:30am 22.9 SSE 3 5 1010.6 - 0.0 - - 10 - - - -
16/02:00am 23.4 SE 4 6 1010.9 - 0.0 - - 10 - - - -
16/01:30am 23.7 ESE 5 7 1011.1 - 0.0 - - 10 - - - -
16/01:00am 24.0 SE 5 6 1011.4 - 0.0 - - 10 - - - -
16/12:30am 24.4 SE 5 6 1011.5 - 0.0 - - 10 - - - -
16/12:00am 24.8 ESE 6 9 1011.6 - 0.0 - - 10 - - - -
 
Date/Time
CST
Temp
°C
Wind Pressure Rain since
9am
mm
Weather Cloud Vis
km
Sea
Height
m
Swell
Dir  Spd
kts
Gust
kts
hPa Trend Height
m
Period
s
Dir
15/11:30pm 25.2 E 7 11 1011.7 - 0.0 - - 10 - - - -
15/11:00pm 25.3 E 6 9 1011.7 - 0.0 - - 10 - - - -
15/10:30pm 25.5 E 6 9 1011.9 - 0.0 - - 10 - - - -
15/10:00pm 25.5 ENE 7 10 1011.8 - 0.0 - - 10 - - - -
15/09:30pm 25.7 ENE 7 11 1011.8 - 0.0 - - 10 - - - -
15/09:00pm 25.6 ENE 6 10 1011.6 - 0.0 - - 10 - - - -
15/08:30pm 25.5 ENE 6 9 1011.2 - 0.0 - - 10 - - - -
15/08:00pm 25.7 ENE 7 9 1010.9 - 0.0 - - 10 - - - -
15/07:30pm 25.8 ENE 6 8 1010.8 - 0.0 - - 10 - - - -
15/07:00pm 26.0 ENE 7 10 1010.6 - 0.0 - - 10 - - - -
15/06:30pm 26.4 NE 6 9 1010.3 - 0.0 - - 10 - - - -
15/06:00pm 27.1 NE 7 11 1010.0 - 0.0 - - 10 - - - -
15/05:30pm 28.0 NE 7 11 1009.8 - 0.0 - - 10 - - - -
15/05:00pm 28.6 NE 9 12 1009.7 - 0.0 - - 10 - - - -
15/04:30pm 29.4 NE 10 15 1009.6 - 0.0 - - 10 - - - -
15/04:00pm 29.8 NE 9 15 1009.6 - 0.0 - - 10 - - - -
15/03:30pm 30.6 NE 9 13 1009.7 - 0.0 - - 10 - - - -
15/03:00pm 31.2 NE 8 13 1009.7 - 0.0 - - 10 - - - -
15/02:30pm 31.4 NE 9 13 1010.0 - 0.0 - - 10 - - - -
15/02:00pm 31.7 NE 9 15 1010.4 - 0.0 - - 10 - - - -
15/01:30pm 31.8 NE 9 13 1010.7 - 0.0 - - 10 - - - -
15/01:00pm 32.6 ENE 8 12 1011.3 - 0.0 - - 10 - - - -
15/12:30pm 32.3 ENE 8 13 1011.5 - 0.0 - - 10 - - - -
15/12:00pm 32.1 ENE 8 12 1012.1 - 0.0 - - 10 - - - -
15/11:30am 31.3 ENE 7 14 1012.5 - 0.0 - - 10 - - - -
15/11:00am 31.2 ESE 8 12 1013.1 - 0.0 - - 10 - - - -
15/10:30am 30.6 SE 7 13 1013.2 - 0.0 - - 10 - - - -
15/10:00am 28.7 SSE 6 9 1013.7 - 0.0 - - 10 - - - -
15/09:30am 27.7 S 6 9 1013.7 - 0.0 - - 10 - - - -
15/09:00am 25.6 SSW 5 7 1013.8 - 0.0 - - 10 - - - -
15/08:30am 23.2 S 6 9 1013.8 - 0.0 - - 10 - - - -
15/08:00am 20.9 S 6 10 1013.6 - 0.0 - - 10 - - - -
15/07:30am 19.3 S 6 9 1013.3 - 0.0 - - 10 - - - -
15/07:00am 18.3 S 5 7 1013.0 - 0.0 - - 10 - - - -
15/06:30am 18.1 SSW 6 7 1012.9 - 0.0 - - 10 - - - -
15/06:00am 17.7 S 4 5 1012.9 - 0.0 - - 10 - - - -
15/05:30am 17.8 S 4 5 1012.6 - 0.0 - - 10 - - - -
15/05:00am 18.2 CALM 0 0 1012.4 - 0.0 - - 10 - - - -
15/04:30am 18.1 SSE 4 5 1012.3 - 0.0 - - 10 - - - -
15/04:00am 18.5 CALM 0 0 1012.4 - 0.0 - - 10 - - - -
15/03:30am 19.0 SSE 1 3 1012.4 - 0.0 - - 10 - - - -
15/03:00am 20.1 SSE 3 5 1012.6 - 0.0 - - 10 - - - -
15/02:30am 20.7 CALM 0 3 1012.8 - 0.0 - - 10 - - - -
15/02:00am 21.8 SSE 5 6 1012.9 - 0.0 - - 10 - - - -
15/01:30am 22.1 SE 5 7 1013.3 - 0.0 - - 10 - - - -
15/01:00am 23.3 SE 6 8 1013.2 - 0.0 - - 10 - - - -
15/12:30am 23.7 ESE 7 8 1013.4 - 0.0 - - 10 - - - -
15/12:00am 23.9 ESE 7 8 1013.6 - 0.0 - - 10 - - - -
 
Date/Time
CST
Temp
°C
Wind Pressure Rain since
9am
mm
Weather Cloud Vis
km
Sea
Height
m
Swell
Dir  Spd
kts
Gust
kts
hPa Trend Height
m
Period
s
Dir
14/11:30pm 24.0 ESE 7 9 1013.8 - 0.0 - - 10 - - - -
14/11:00pm 24.0 SE 6 9 1014.0 - 0.0 - - 10 - - - -
14/10:30pm 24.0 SE 6 7 1014.1 - 0.0 - - 10 - - - -
14/10:00pm 24.4 SE 4 5 1013.8 - 0.0 - - 10 - - - -
14/09:30pm 24.6 ESE 4 6 1013.5 - 0.0 - Partly cloudy 10 - - - -
14/09:00pm 24.8 E 4 6 1013.2 - 0.0 - Mostly clear 10 - - - -
14/08:30pm 24.9 E 4 5 1012.9 - 0.0 - Partly cloudy 10 - - - -
14/08:00pm 25.1 ENE 4 5 1012.5 - 0.0 - - 10 - - - -
14/07:30pm 25.4 ENE 3 5 1012.2 - 0.0 - - 10 - - - -
14/07:00pm 26.0 ENE 4 6 1012.0 - 0.0 - - 10 - - - -
14/06:30pm 26.6 ENE 6 9 1011.8 - 0.0 - - 10 - - - -
14/06:00pm 27.4 ENE 7 10 1011.6 - 0.0 - - 10 - - - -
14/05:30pm 28.4 NE 8 13 1011.4 - 0.0 - - 10 - - - -
14/05:00pm 28.8 NE 9 13 1011.2 - 0.0 - - 10 - - - -
14/04:30pm 29.5 NE 9 13 1011.1 - 0.0 - - 10 - - - -
14/04:00pm 29.7 NE 9 12 1011.1 - 0.0 - - 10 - - - -
14/03:30pm 30.7 NE 10 15 1011.3 - 0.0 - - 10 - - - -
14/03:00pm 30.4 NE 10 16 1011.5 - 0.0 - - 10 - - - -
14/02:30pm 31.8 ENE 10 15 1011.7 - 0.0 - - 10 - - - -
14/02:00pm 30.9 ENE 11 17 1012.0 - 0.0 - Partly cloudy 10 - - - -
14/01:30pm 31.1 ENE 11 15 1012.6 - 0.0 - Partly cloudy 10 - - - -
14/01:00pm 31.7 ENE 9 14 1012.8 - 0.0 - Partly cloudy 10 - - - -
14/12:30pm 31.2 E 9 15 1013.3 - 0.0 - - 10 - - - -
14/12:00pm 30.1 SE 12 17 1013.9 - 0.0 - Mostly clear 10 - - - -
14/11:30am 30.0 ESE 10 15 1014.2 - 0.0 - - 10 - - - -
14/11:00am 29.7 ESE 12 24 1014.6 - 0.0 - - 10 - - - -
14/10:30am 29.5 ESE 10 14 1015.0 - 0.0 - - 10 - - - -
14/10:00am 28.1 SE 10 16 1015.2 - 0.0 - - 10 - - - -
14/09:30am 26.6 SE 11 16 1015.3 - 0.0 - - 10 - - - -
14/09:00am 25.5 SE 9 13 1015.3 - 0.0 - - 10 - - - -
14/08:30am 23.8 SE 10 14 1015.0 - 0.0 - - 10 - - - -
14/08:00am 21.4 SSE 8 11 1014.7 - 0.0 - - 10 - - - -
14/07:34am 19.1 SSE 8 11 1014.6 - 0.0 - Partly cloudy 10 - - - -
14/07:31am 19.1 SSE 8 11 1014.5 - 0.0 - Partly cloudy 10 - - - -
14/07:30am 19.1 SSE 8 11 1014.5 - 0.0 - Partly cloudy 10 - - - -
14/07:16am 18.3 S 7 10 1014.4 - 0.0 - Partly cloudy 5 - - - -
14/07:15am 18.3 S 7 10 1014.4 - 0.0 - Partly cloudy 5 - - - -
14/07:00am 17.6 S 5 8 1014.3 - 0.0 - - 10 - - - -
14/06:30am 17.0 S 4 5 1014.2 - 0.0 - - 10 - - - -
14/06:00am 17.4 SSE 4 6 1014.0 - 0.0 - - 10 - - - -
14/05:30am 17.5 S 4 5 1013.7 - 0.0 - - 10 - - - -
14/05:00am 17.9 S 4 5 1013.6 - 0.0 - - 10 - - - -
14/04:30am 18.7 SE 5 5 1013.4 - 0.0 - - 10 - - - -
14/04:00am 19.4 SSE 5 7 1013.2 - 0.0 - - 10 - - - -
14/03:30am 20.0 SSE 6 7 1013.4 - 0.0 - - 10 - - - -

Other Formats:

Comma delimited format used in spreadsheet applications
http://www.bom.gov.au/fwo/IDD60701/IDD60701.95142.axf

JavaScript Object Notation format (JSON) in row-major order
http://www.bom.gov.au/fwo/IDD60701/IDD60701.95142.json